Time;durP1;ratioP1;P1;durP2;ratioP2;P2;SDS_P1;SDS_P2;PMS_P1;PMS_P2;Temp;Humidity;BMP_temperature;BMP_pressure;BME280_temperature;BME280_humidity;BME280_pressure;Samples;Min_cycle;Max_cycle;Signal;HPM_P1;HPM_P2
2021/06/11 00:00:50;;;;;;;25.08;14.23;;;;;;;;;;5023311;28;20382;-68
2021/06/11 00:03:19;;;;;;;26.33;13.85;;;;;;;;;;5016243;28;20501;-73
2021/06/11 00:05:45;;;;;;;27.77;14.23;;;;;;;;;;5019177;28;20021;-68
2021/06/11 00:08:11;;;;;;;31.30;15.02;;;;;;;;;;5019623;28;20069;-68
2021/06/11 00:10:37;;;;;;;23.35;13.95;;;;;;;;;;5009977;28;20029;-69
2021/06/11 00:13:04;;;;;;;27.48;14.57;;;;;;;;;;5039420;28;20048;-66
2021/06/11 00:15:31;;;;;;;31.58;14.10;;;;;;;;;;5019533;28;20045;-68
2021/06/11 00:17:56;;;;;;;31.70;15.23;;;;;;;;;;5020375;28;20065;-69
2021/06/11 00:20:23;;;;;;;25.45;15.10;;;;;;;;;;5007525;28;20114;-72
2021/06/11 00:22:49;;;;;;;31.27;14.38;;;;;;;;;;5024336;28;20041;-68
2021/06/11 00:25:20;;;;;;;30.75;15.52;;;;;;;;;;5022928;28;20095;-69
2021/06/11 00:27:46;;;;;;;29.73;14.98;;;;;;;;;;5023211;28;20147;-69
2021/06/11 00:30:12;;;;;;;27.63;14.23;;;;;;;;;;5035502;28;20114;-69
2021/06/11 00:32:38;;;;;;;29.55;14.40;;;;;;;;;;5020570;28;20041;-68
2021/06/11 00:35:07;;;;;;;26.42;14.15;;;;;;;;;;5040681;28;20029;-68
2021/06/11 00:37:33;;;;;;;31.33;14.57;;;;;;;;;;5027149;28;20043;-73
2021/06/11 00:39:59;;;;;;;27.10;14.45;;;;;;;;;;5028585;28;20124;-67
2021/06/11 00:42:27;;;;;;;29.23;14.60;;;;;;;;;;5011088;28;20045;-67
2021/06/11 00:44:52;;;;;;;35.35;14.52;;;;;;;;;;5023012;28;20716;-66
2021/06/11 00:47:18;;;;;;;31.70;14.65;;;;;;;;;;5043956;28;20041;-66
2021/06/11 00:49:44;;;;;;;28.50;14.88;;;;;;;;;;5029220;28;20477;-66
2021/06/11 00:52:10;;;;;;;39.90;15.25;;;;;;;;;;5038555;28;20041;-67
2021/06/11 00:54:35;;;;;;;32.88;15.50;;;;;;;;;;5026346;28;20032;-73
2021/06/11 00:57:01;;;;;;;35.70;15.32;;;;;;;;;;5026274;28;20041;-65
2021/06/11 00:59:27;;;;;;;29.58;15.23;;;;;;;;;;5036040;28;20036;-68
2021/06/11 01:01:53;;;;;;;31.60;15.18;;;;;;;;;;5038680;28;20120;-66
2021/06/11 01:04:19;;;;;;;41.10;15.45;;;;;;;;;;5024679;28;20136;-73
2021/06/11 01:06:46;;;;;;;30.80;16.38;;;;;;;;;;5026108;28;20029;-70
2021/06/11 01:09:12;;;;;;;35.05;16.00;;;;;;;;;;4997731;28;20508;-66
2021/06/11 01:11:38;;;;;;;40.10;16.60;;;;;;;;;;5026270;28;20080;-65
2021/06/11 01:14:07;;;;;;;32.72;17.08;;;;;;;;;;5023331;28;20120;-65
2021/06/11 01:16:34;;;;;;;37.63;17.30;;;;;;;;;;5014963;28;20510;-66
2021/06/11 01:19:00;;;;;;;28.63;17.20;;;;;;;;;;5028415;28;20139;-66
2021/06/11 01:21:28;;;;;;;39.25;18.55;;;;;;;;;;5029163;28;20112;-69
2021/06/11 01:24:00;;;;;;;37.85;18.20;;;;;;;;;;5005626;28;20088;-67
2021/06/11 01:26:31;;;;;;;46.55;19.65;;;;;;;;;;4992124;28;20037;-67
2021/06/11 01:28:59;;;;;;;38.35;18.55;;;;;;;;;;5021427;28;20037;-70
2021/06/11 01:31:27;;;;;;;35.80;17.98;;;;;;;;;;5027863;28;20461;-68
2021/06/11 01:33:57;;;;;;;34.47;18.85;;;;;;;;;;5045317;28;20037;-66
2021/06/11 01:36:27;;;;;;;34.95;19.17;;;;;;;;;;5038342;28;20067;-70
2021/06/11 01:38:55;;;;;;;38.53;18.27;;;;;;;;;;5008249;28;20501;-66
2021/06/11 01:41:21;;;;;;;38.38;18.48;;;;;;;;;;5018897;28;20034;-66
2021/06/11 01:43:49;;;;;;;32.42;17.98;;;;;;;;;;5025933;28;20041;-73
2021/06/11 01:46:16;;;;;;;37.92;18.90;;;;;;;;;;5016349;28;20029;-65
2021/06/11 01:48:44;;;;;;;38.15;20.17;;;;;;;;;;5015239;28;20060;-68
2021/06/11 01:51:11;;;;;;;39.60;21.35;;;;;;;;;;5034858;28;20520;-68
2021/06/11 01:53:38;;;;;;;49.85;21.17;;;;;;;;;;5031905;28;20053;-68
2021/06/11 01:56:04;;;;;;;48.90;20.55;;;;;;;;;;5035978;28;20097;-69
2021/06/11 01:58:30;;;;;;;42.67;20.65;;;;;;;;;;5039565;28;20413;-67
2021/06/11 02:00:58;;;;;;;34.13;18.35;;;;;;;;;;5020364;28;20109;-73
2021/06/11 02:03:27;;;;;;;45.75;19.13;;;;;;;;;;5008640;28;20716;-76
2021/06/11 02:05:53;;;;;;;37.45;17.77;;;;;;;;;;5043724;28;20033;-68
2021/06/11 02:08:20;;;;;;;31.25;17.48;;;;;;;;;;5011422;28;20130;-68
2021/06/11 02:10:46;;;;;;;38.83;17.25;;;;;;;;;;5009510;28;20542;-67
2021/06/11 02:13:12;;;;;;;36.92;16.65;;;;;;;;;;5045297;28;20048;-70
2021/06/11 02:15:38;;;;;;;33.20;16.17;;;;;;;;;;5045680;28;20107;-69
2021/06/11 02:18:05;;;;;;;33.95;16.48;;;;;;;;;;5025194;28;20044;-71
2021/06/11 02:20:31;;;;;;;30.50;16.02;;;;;;;;;;5011499;28;20028;-67
2021/06/11 02:22:57;;;;;;;33.47;15.60;;;;;;;;;;5045227;28;20370;-79
2021/06/11 02:25:26;;;;;;;34.47;15.60;;;;;;;;;;5045234;28;20045;-71
2021/06/11 02:27:57;;;;;;;29.15;14.60;;;;;;;;;;5016751;28;20047;-68
2021/06/11 02:30:23;;;;;;;35.00;15.23;;;;;;;;;;5011639;28;20055;-68
2021/06/11 02:32:49;;;;;;;26.45;14.63;;;;;;;;;;5009475;28;20037;-69
2021/06/11 02:35:19;;;;;;;30.50;14.82;;;;;;;;;;5005551;28;20452;-68
2021/06/11 02:37:45;;;;;;;30.70;15.27;;;;;;;;;;4991819;28;20459;-68
2021/06/11 02:40:11;;;;;;;34.58;14.88;;;;;;;;;;5024295;28;20496;-69
2021/06/11 02:42:38;;;;;;;33.72;14.50;;;;;;;;;;5026957;28;20041;-70
2021/06/11 02:45:05;;;;;;;30.52;14.32;;;;;;;;;;5044404;28;20753;-70
2021/06/11 02:47:49;;;;;;;28.48;14.30;;;;;;;;;;5044745;28;20468;-68
2021/06/11 02:50:35;;;;;;;30.08;14.98;;;;;;;;;;5042595;28;20537;-67
2021/06/11 02:53:02;;;;;;;37.72;15.48;;;;;;;;;;5043593;28;20049;-67
2021/06/11 02:55:29;;;;;;;34.80;15.90;;;;;;;;;;5028814;28;20516;-73
2021/06/11 02:57:58;;;;;;;30.42;14.93;;;;;;;;;;5030499;28;20039;-66
2021/06/11 03:00:28;;;;;;;34.42;14.15;;;;;;;;;;5044723;28;20044;-67
2021/06/11 03:03:03;;;;;;;32.67;14.63;;;;;;;;;;5010940;28;20135;-70
2021/06/11 03:05:31;;;;;;;28.50;15.25;;;;;;;;;;5014615;28;20036;-67
2021/06/11 03:07:59;;;;;;;33.55;15.35;;;;;;;;;;5030094;28;20501;-72
2021/06/11 03:10:26;;;;;;;31.98;15.07;;;;;;;;;;5013585;28;20095;-72
2021/06/11 03:12:54;;;;;;;24.50;14.52;;;;;;;;;;5030541;28;20045;-67
2021/06/11 03:15:20;;;;;;;32.33;14.82;;;;;;;;;;5047477;28;20524;-67
2021/06/11 03:17:47;;;;;;;37.75;14.60;;;;;;;;;;5040658;28;20037;-68
2021/06/11 03:20:20;;;;;;;32.65;14.43;;;;;;;;;;5015046;28;20519;-70
2021/06/11 03:22:51;;;;;;;34.35;14.90;;;;;;;;;;5027689;28;20420;-68
2021/06/11 03:25:25;;;;;;;29.95;14.60;;;;;;;;;;5040793;28;20029;-68
2021/06/11 03:27:58;;;;;;;36.17;14.82;;;;;;;;;;5032683;28;20033;-67
2021/06/11 03:30:26;;;;;;;32.05;14.95;;;;;;;;;;5019966;28;20041;-67
2021/06/11 03:32:54;;;;;;;26.52;14.75;;;;;;;;;;5028413;28;20047;-70
2021/06/11 03:35:25;;;;;;;32.63;15.27;;;;;;;;;;5034254;28;20132;-69
2021/06/11 03:37:54;;;;;;;32.63;15.05;;;;;;;;;;5027949;28;20390;-68
2021/06/11 03:40:41;;;;;;;31.42;14.38;;;;;;;;;;5009925;28;20041;-74
2021/06/11 03:43:08;;;;;;;35.55;14.45;;;;;;;;;;5048284;28;20120;-70
2021/06/11 03:45:34;;;;;;;33.47;14.48;;;;;;;;;;5047001;28;20489;-67
2021/06/11 03:48:01;;;;;;;29.77;14.85;;;;;;;;;;5009829;28;20143;-68
2021/06/11 03:50:27;;;;;;;29.60;14.50;;;;;;;;;;5010256;28;20409;-69
2021/06/11 03:52:55;;;;;;;32.97;15.52;;;;;;;;;;5015918;28;20052;-68
2021/06/11 03:55:22;;;;;;;33.63;15.35;;;;;;;;;;5028091;28;20110;-69
2021/06/11 03:57:59;;;;;;;28.50;15.52;;;;;;;;;;5028593;28;20033;-67
2021/06/11 04:00:28;;;;;;;30.95;14.52;;;;;;;;;;5037365;28;20049;-67
2021/06/11 04:02:54;;;;;;;32.10;14.70;;;;;;;;;;5040057;28;20111;-68
2021/06/11 04:05:19;;;;;;;26.90;15.00;;;;;;;;;;5029092;28;20795;-70
2021/06/11 04:07:52;;;;;;;28.52;14.85;;;;;;;;;;5033835;28;20528;-68
2021/06/11 04:10:22;;;;;;;28.60;14.43;;;;;;;;;;4988933;28;20058;-76
2021/06/11 04:12:53;;;;;;;32.05;14.63;;;;;;;;;;5021790;28;20045;-67
2021/06/11 04:15:19;;;;;;;25.42;13.30;;;;;;;;;;5023076;28;20042;-68
2021/06/11 04:17:51;;;;;;;31.45;15.35;;;;;;;;;;5014871;28;20604;-73
2021/06/11 04:20:25;;;;;;;35.92;14.98;;;;;;;;;;5022957;28;20037;-70
2021/06/11 04:22:52;;;;;;;33.83;14.25;;;;;;;;;;5023915;28;20038;-66
2021/06/11 04:25:18;;;;;;;28.05;14.20;;;;;;;;;;5021773;28;20096;-75
2021/06/11 04:27:45;;;;;;;31.05;14.77;;;;;;;;;;5005429;28;20090;-69
2021/06/11 04:30:13;;;;;;;36.08;16.52;;;;;;;;;;5025127;28;20044;-68
2021/06/11 04:32:41;;;;;;;37.65;18.98;;;;;;;;;;5024603;28;20045;-66
2021/06/11 04:35:07;;;;;;;31.13;15.55;;;;;;;;;;4987861;28;20033;-67
2021/06/11 04:37:35;;;;;;;28.52;14.68;;;;;;;;;;5022653;28;20041;-69
2021/06/11 04:40:07;;;;;;;35.95;15.23;;;;;;;;;;5030010;28;20111;-68
2021/06/11 04:42:34;;;;;;;36.33;15.23;;;;;;;;;;5018824;28;20056;-68
2021/06/11 04:45:00;;;;;;;29.80;14.63;;;;;;;;;;5009367;28;20170;-68
2021/06/11 04:47:27;;;;;;;36.28;15.70;;;;;;;;;;5020715;28;20405;-70
2021/06/11 04:49:54;;;;;;;32.05;15.98;;;;;;;;;;5007330;28;20045;-73
2021/06/11 04:52:20;;;;;;;28.33;15.40;;;;;;;;;;5024231;28;20045;-69
2021/06/11 04:54:46;;;;;;;41.15;17.88;;;;;;;;;;5024539;28;20087;-68
2021/06/11 04:57:12;;;;;;;34.75;16.60;;;;;;;;;;5013104;28;20034;-67
2021/06/11 04:59:38;;;;;;;34.65;16.42;;;;;;;;;;5017469;28;20108;-68
2021/06/11 05:02:04;;;;;;;27.30;15.70;;;;;;;;;;5013595;28;20269;-71
2021/06/11 05:04:30;;;;;;;35.35;16.70;;;;;;;;;;5008027;28;20095;-68
2021/06/11 05:06:56;;;;;;;35.58;16.52;;;;;;;;;;5023233;28;20143;-73
2021/06/11 05:09:22;;;;;;;35.20;15.98;;;;;;;;;;5011671;28;20081;-67
2021/06/11 05:11:48;;;;;;;36.28;17.42;;;;;;;;;;5017701;28;20060;-68
2021/06/11 05:14:14;;;;;;;46.95;21.88;;;;;;;;;;5024493;28;20049;-66
2021/06/11 05:16:39;;;;;;;41.28;23.13;;;;;;;;;;5017362;28;20662;-69
2021/06/11 05:19:05;;;;;;;45.88;23.05;;;;;;;;;;5023415;28;20487;-72
2021/06/11 05:21:31;;;;;;;40.30;21.40;;;;;;;;;;5009983;28;20048;-70
2021/06/11 05:23:57;;;;;;;46.05;21.27;;;;;;;;;;5011911;28;20045;-69
2021/06/11 05:26:23;;;;;;;37.20;18.52;;;;;;;;;;5019348;28;20445;-70
2021/06/11 05:28:49;;;;;;;32.47;17.15;;;;;;;;;;5015690;28;20108;-69
2021/06/11 05:31:15;;;;;;;35.28;18.17;;;;;;;;;;5013505;28;20042;-69
2021/06/11 05:33:40;;;;;;;32.63;17.48;;;;;;;;;;5003949;28;20424;-70
2021/06/11 05:36:06;;;;;;;34.88;16.88;;;;;;;;;;5003951;28;20038;-70
2021/06/11 05:38:32;;;;;;;33.38;16.35;;;;;;;;;;5021145;28;20403;-68
2021/06/11 05:40:59;;;;;;;33.85;16.35;;;;;;;;;;5019707;28;20033;-68
2021/06/11 05:43:27;;;;;;;38.55;17.05;;;;;;;;;;5020953;28;20175;-69
2021/06/11 05:45:52;;;;;;;36.05;18.23;;;;;;;;;;5039377;28;20067;-68
2021/06/11 05:48:18;;;;;;;35.58;17.90;;;;;;;;;;5023816;28;20037;-69
2021/06/11 05:50:44;;;;;;;30.42;17.23;;;;;;;;;;5015374;28;20033;-79
2021/06/11 05:53:10;;;;;;;34.25;16.40;;;;;;;;;;5015051;28;20057;-70
2021/06/11 05:55:36;;;;;;;36.15;16.95;;;;;;;;;;5024844;28;20029;-70
2021/06/11 05:58:02;;;;;;;30.83;17.80;;;;;;;;;;5022780;28;20034;-72
2021/06/11 06:00:28;;;;;;;35.38;18.45;;;;;;;;;;5021618;28;20034;-72
2021/06/11 06:02:54;;;;;;;33.33;18.55;;;;;;;;;;5017575;28;20454;-68
2021/06/11 06:05:20;;;;;;;37.47;18.25;;;;;;;;;;5014462;28;20481;-72
2021/06/11 06:07:46;;;;;;;38.92;19.23;;;;;;;;;;4983851;28;20033;-70
2021/06/11 06:10:15;;;;;;;42.72;20.15;;;;;;;;;;4994945;28;20064;-69
2021/06/11 06:12:40;;;;;;;40.45;19.52;;;;;;;;;;5014278;28;20049;-70
2021/06/11 06:15:07;;;;;;;35.65;18.85;;;;;;;;;;5000286;28;20060;-72
2021/06/11 06:17:35;;;;;;;41.00;19.33;;;;;;;;;;5031292;28;20080;-73
2021/06/11 06:20:06;;;;;;;36.58;19.48;;;;;;;;;;5015843;28;20025;-70
2021/06/11 06:22:32;;;;;;;40.05;19.73;;;;;;;;;;5015876;28;20120;-71
2021/06/11 06:24:58;;;;;;;41.05;18.45;;;;;;;;;;5014708;28;20053;-71
2021/06/11 06:27:24;;;;;;;42.83;19.33;;;;;;;;;;5014279;28;20037;-68
2021/06/11 06:29:51;;;;;;;34.67;19.02;;;;;;;;;;5018660;28;20091;-71
2021/06/11 06:32:17;;;;;;;39.65;18.73;;;;;;;;;;5016133;28;20041;-71
2021/06/11 06:34:42;;;;;;;32.95;17.83;;;;;;;;;;5018849;28;20045;-71
2021/06/11 06:37:10;;;;;;;31.85;17.80;;;;;;;;;;5017551;28;20056;-69
2021/06/11 06:39:37;;;;;;;35.08;17.80;;;;;;;;;;5004666;28;20129;-70
2021/06/11 06:42:05;;;;;;;32.70;18.70;;;;;;;;;;5036078;28;20061;-81
2021/06/11 06:44:31;;;;;;;36.35;17.27;;;;;;;;;;5017429;28;20081;-68
2021/06/11 06:46:56;;;;;;;33.17;17.20;;;;;;;;;;5019859;28;20037;-69
2021/06/11 06:49:22;;;;;;;35.30;18.30;;;;;;;;;;5021119;28;20343;-68
2021/06/11 06:51:48;;;;;;;36.15;18.25;;;;;;;;;;5015593;28;20163;-72
2021/06/11 06:54:14;;;;;;;33.75;18.77;;;;;;;;;;5016959;28;20037;-68
2021/06/11 06:56:40;;;;;;;34.35;19.83;;;;;;;;;;5013423;28;20064;-76
2021/06/11 06:59:06;;;;;;;33.15;18.70;;;;;;;;;;5000899;28;20088;-72
2021/06/11 07:01:31;;;;;;;41.22;17.25;;;;;;;;;;5018573;28;20029;-71
2021/06/11 07:04:01;;;;;;;34.08;18.30;;;;;;;;;;5019139;28;20559;-70
2021/06/11 07:06:26;;;;;;;35.40;19.35;;;;;;;;;;5017704;28;20136;-70
2021/06/11 07:08:53;;;;;;;36.67;17.73;;;;;;;;;;5028333;28;20146;-74
2021/06/11 07:11:19;;;;;;;38.72;20.63;;;;;;;;;;5036989;28;20061;-70
2021/06/11 07:13:44;;;;;;;35.13;19.27;;;;;;;;;;5029479;28;20059;-69
2021/06/11 07:16:11;;;;;;;33.60;18.65;;;;;;;;;;5031148;28;20063;-70
2021/06/11 07:18:37;;;;;;;30.17;17.83;;;;;;;;;;5002693;28;20521;-69
2021/06/11 07:21:10;;;;;;;33.30;19.00;;;;;;;;;;5016429;28;20156;-70
2021/06/11 07:23:36;;;;;;;31.50;18.77;;;;;;;;;;5033884;28;20041;-69
2021/06/11 07:26:05;;;;;;;34.45;19.27;;;;;;;;;;5018945;28;20106;-73
2021/06/11 07:28:33;;;;;;;41.05;19.38;;;;;;;;;;5018253;28;20041;-71
2021/06/11 07:30:58;;;;;;;35.95;19.33;;;;;;;;;;5045687;28;20562;-71
2021/06/11 07:33:24;;;;;;;34.78;19.38;;;;;;;;;;5032662;28;20037;-78
2021/06/11 07:35:50;;;;;;;37.35;19.23;;;;;;;;;;5036818;28;20052;-71
2021/06/11 07:38:16;;;;;;;40.75;19.92;;;;;;;;;;5024951;28;20103;-69
2021/06/11 07:40:44;;;;;;;42.63;19.77;;;;;;;;;;5039443;28;20378;-70
2021/06/11 07:43:10;;;;;;;45.38;20.70;;;;;;;;;;5042008;28;20052;-69
2021/06/11 07:45:36;;;;;;;41.00;20.33;;;;;;;;;;5038157;28;20033;-71
2021/06/11 07:48:02;;;;;;;36.85;19.60;;;;;;;;;;4991340;28;20048;-71
2021/06/11 07:50:29;;;;;;;34.20;20.70;;;;;;;;;;5016393;28;20131;-66
2021/06/11 07:52:54;;;;;;;37.95;20.42;;;;;;;;;;5021563;28;20044;-66
2021/06/11 07:55:20;;;;;;;49.17;24.42;;;;;;;;;;5037228;28;20103;-70
2021/06/11 07:57:46;;;;;;;37.10;21.83;;;;;;;;;;5026020;28;20116;-69
2021/06/11 08:00:12;;;;;;;32.05;20.30;;;;;;;;;;5035379;28;20485;-78
2021/06/11 08:02:42;;;;;;;36.70;22.25;;;;;;;;;;5021065;28;20059;-68
2021/06/11 08:05:09;;;;;;;43.47;22.95;;;;;;;;;;5040974;28;20053;-67
2021/06/11 08:07:35;;;;;;;36.97;22.08;;;;;;;;;;5027948;28;20033;-69
2021/06/11 08:10:01;;;;;;;38.05;24.25;;;;;;;;;;5036434;28;20746;-65
2021/06/11 08:12:30;;;;;;;38.55;22.55;;;;;;;;;;5038043;28;20457;-67
2021/06/11 08:14:56;;;;;;;39.22;24.10;;;;;;;;;;5010907;28;20037;-65
2021/06/11 08:17:22;;;;;;;44.28;25.17;;;;;;;;;;5034715;28;20417;-73
2021/06/11 08:19:47;;;;;;;47.60;24.90;;;;;;;;;;5006499;28;20899;-66
2021/06/11 08:22:13;;;;;;;41.45;24.65;;;;;;;;;;5007863;28;20394;-68
2021/06/11 08:24:39;;;;;;;46.58;25.05;;;;;;;;;;5036075;28;20043;-67
2021/06/11 08:27:07;;;;;;;44.20;25.90;;;;;;;;;;5035980;28;20094;-68
2021/06/11 08:29:33;;;;;;;48.72;26.42;;;;;;;;;;5038229;28;20041;-72
2021/06/11 08:31:59;;;;;;;60.17;27.25;;;;;;;;;;5026239;28;20547;-69
2021/06/11 08:34:27;;;;;;;50.65;27.33;;;;;;;;;;5034454;28;20037;-70
2021/06/11 08:36:52;;;;;;;51.08;27.10;;;;;;;;;;5034623;28;20031;-67
2021/06/11 08:39:19;;;;;;;54.38;28.48;;;;;;;;;;5035213;28;20181;-67
2021/06/11 08:41:44;;;;;;;48.15;26.52;;;;;;;;;;5011670;28;20438;-66
2021/06/11 08:44:11;;;;;;;53.92;31.35;;;;;;;;;;5026203;28;20527;-67
2021/06/11 08:46:37;;;;;;;51.50;26.73;;;;;;;;;;5033461;28;20079;-68
2021/06/11 08:49:03;;;;;;;58.65;28.08;;;;;;;;;;5009900;28;20570;-65
2021/06/11 08:51:30;;;;;;;56.15;27.45;;;;;;;;;;5008830;28;20041;-72
2021/06/11 08:53:57;;;;;;;48.05;27.10;;;;;;;;;;5022717;28;20042;-65
2021/06/11 08:56:24;;;;;;;64.97;27.48;;;;;;;;;;5006373;28;20795;-66
2021/06/11 08:58:50;;;;;;;60.33;31.25;;;;;;;;;;5026589;28;20040;-68
2021/06/11 09:01:16;;;;;;;62.35;27.98;;;;;;;;;;5024514;28;20037;-68
2021/06/11 09:03:46;;;;;;;51.53;28.52;;;;;;;;;;5045182;28;20045;-65
2021/06/11 09:06:13;;;;;;;63.90;28.92;;;;;;;;;;5010909;28;20058;-66
2021/06/11 09:08:40;;;;;;;57.90;29.58;;;;;;;;;;5024363;28;20068;-74
2021/06/11 09:11:19;;;;;;;64.50;30.73;;;;;;;;;;5010693;28;20037;-65
2021/06/11 09:13:48;;;;;;;59.70;29.98;;;;;;;;;;5026605;28;20417;-66
2021/06/11 09:16:16;;;;;;;57.10;29.67;;;;;;;;;;5035480;28;20040;-66
2021/06/11 09:18:43;;;;;;;60.65;29.48;;;;;;;;;;5035376;28;20481;-64
2021/06/11 09:21:28;;;;;;;60.20;29.42;;;;;;;;;;4997537;28;20068;-68
2021/06/11 09:24:08;;;;;;;54.17;29.45;;;;;;;;;;5026130;28;20026;-65
2021/06/11 09:26:34;;;;;;;58.80;29.88;;;;;;;;;;5026536;28;20087;-72
2021/06/11 09:29:17;;;;;;;62.45;31.83;;;;;;;;;;5030877;28;20045;-66
2021/06/11 09:31:43;;;;;;;61.38;30.85;;;;;;;;;;5044481;28;20552;-65
2021/06/11 09:34:30;;;;;;;62.58;32.85;;;;;;;;;;5041467;28;20034;-66
2021/06/11 09:37:00;;;;;;;56.63;31.63;;;;;;;;;;5038051;28;20044;-68
2021/06/11 09:39:38;;;;;;;72.75;33.35;;;;;;;;;;5010501;28;20044;-67
2021/06/11 09:42:04;;;;;;;68.40;31.55;;;;;;;;;;5041830;28;20803;-69
2021/06/11 09:44:30;;;;;;;59.80;30.95;;;;;;;;;;5040668;28;20431;-68
2021/06/11 09:46:56;;;;;;;64.78;31.08;;;;;;;;;;5032141;28;20032;-69
2021/06/11 09:49:26;;;;;;;62.90;32.47;;;;;;;;;;5023673;28;20119;-70
2021/06/11 09:52:07;;;;;;;70.82;33.58;;;;;;;;;;5038939;28;20540;-68
2021/06/11 09:54:33;;;;;;;69.88;32.92;;;;;;;;;;5028281;28;20106;-71
2021/06/11 09:57:19;;;;;;;65.00;32.70;;;;;;;;;;5034056;28;20056;-71
2021/06/11 09:59:45;;;;;;;70.20;33.03;;;;;;;;;;5037135;28;20032;-75
2021/06/11 10:02:18;;;;;;;71.60;33.13;;;;;;;;;;5020883;28;20150;-71
2021/06/11 10:04:45;;;;;;;76.90;32.92;;;;;;;;;;5035430;28;20551;-70
2021/06/11 10:07:11;;;;;;;69.70;32.95;;;;;;;;;;5037660;28;20107;-75
2021/06/11 10:09:37;;;;;;;68.18;32.47;;;;;;;;;;5032510;28;20053;-74
2021/06/11 10:12:04;;;;;;;64.07;31.90;;;;;;;;;;5004968;28;20073;-72
2021/06/11 10:14:30;;;;;;;57.42;30.35;;;;;;;;;;5012197;28;20503;-78
2021/06/11 10:16:57;;;;;;;67.50;32.63;;;;;;;;;;4987407;28;20033;-76
2021/06/11 10:19:24;;;;;;;72.68;34.03;;;;;;;;;;5014524;28;20045;-74
2021/06/11 10:21:50;;;;;;;66.38;32.40;;;;;;;;;;5019476;28;20045;-78
2021/06/11 10:24:17;;;;;;;73.20;32.78;;;;;;;;;;5034689;28;20041;-72
2021/06/11 10:26:43;;;;;;;67.70;33.95;;;;;;;;;;5018332;28;20120;-78
2021/06/11 10:29:20;;;;;;;72.30;33.67;;;;;;;;;;5020007;28;20119;-73
2021/06/11 10:31:47;;;;;;;68.55;32.53;;;;;;;;;;5009680;28;20073;-76
2021/06/11 10:34:13;;;;;;;65.40;32.08;;;;;;;;;;5033198;28;20492;-75
2021/06/11 10:36:43;;;;;;;78.15;33.13;;;;;;;;;;5016094;28;20658;-75
2021/06/11 10:39:09;;;;;;;72.53;31.50;;;;;;;;;;5025051;28;20041;-76
2021/06/11 10:41:54;;;;;;;62.67;31.85;;;;;;;;;;5024107;28;20405;-77
2021/06/11 10:44:38;;;;;;;66.18;32.85;;;;;;;;;;5007369;28;20095;-74
2021/06/11 10:47:17;;;;;;;62.90;30.85;;;;;;;;;;5004628;28;20040;-72
2021/06/11 10:50:10;;;;;;;68.57;32.40;;;;;;;;;;5042868;28;20396;-71
2021/06/11 10:52:46;;;;;;;66.55;32.00;;;;;;;;;;5036524;28;20767;-74
2021/06/11 10:55:16;;;;;;;63.75;30.85;;;;;;;;;;4998355;28;20103;-73
2021/06/11 10:57:53;;;;;;;72.78;33.80;;;;;;;;;;5005020;28;20495;-72
2021/06/11 11:00:19;;;;;;;74.53;33.65;;;;;;;;;;5030278;28;20476;-71
2021/06/11 11:02:46;;;;;;;65.47;31.67;;;;;;;;;;5007292;28;20040;-73
2021/06/11 11:05:25;;;;;;;65.60;32.90;;;;;;;;;;5025999;28;20075;-73
2021/06/11 11:07:53;;;;;;;74.60;33.58;;;;;;;;;;5036254;28;20055;-74
2021/06/11 11:10:39;;;;;;;66.53;31.38;;;;;;;;;;5006861;28;20056;-72
2021/06/11 11:13:07;;;;;;;68.63;32.15;;;;;;;;;;5025328;28;20416;-75
2021/06/11 11:15:34;;;;;;;67.20;32.78;;;;;;;;;;5018188;28;20119;-74
2021/06/11 11:18:00;;;;;;;69.88;31.90;;;;;;;;;;5038882;28;20098;-73
2021/06/11 11:20:30;;;;;;;66.78;32.58;;;;;;;;;;5011669;28;20914;-72
2021/06/11 11:22:59;;;;;;;70.03;32.92;;;;;;;;;;5036717;28;20043;-74
2021/06/11 11:25:26;;;;;;;74.68;35.13;;;;;;;;;;5027006;28;20377;-70
2021/06/11 11:27:53;;;;;;;67.85;33.55;;;;;;;;;;5025757;28;20032;-74
2021/06/11 11:30:20;;;;;;;65.32;31.73;;;;;;;;;;5039013;28;20047;-72
2021/06/11 11:32:46;;;;;;;58.15;32.17;;;;;;;;;;5023677;28;20044;-72
2021/06/11 11:35:17;;;;;;;68.93;30.95;;;;;;;;;;5025043;28;20420;-74
2021/06/11 11:37:43;;;;;;;55.08;29.88;;;;;;;;;;5036851;28;20037;-72
2021/06/11 11:40:09;;;;;;;66.05;30.02;;;;;;;;;;5037942;28;20507;-74
2021/06/11 11:42:37;;;;;;;58.30;28.77;;;;;;;;;;5036547;28;20124;-72
2021/06/11 11:45:04;;;;;;;57.28;28.23;;;;;;;;;;5004769;28;20120;-72
2021/06/11 11:47:29;;;;;;;56.90;30.40;;;;;;;;;;5009206;28;20031;-79
2021/06/11 11:49:55;;;;;;;60.47;27.25;;;;;;;;;;5036508;28;20024;-82
2021/06/11 11:52:21;;;;;;;59.55;28.20;;;;;;;;;;5016597;28;20136;-75
2021/06/11 11:54:46;;;;;;;56.53;28.02;;;;;;;;;;5036538;28;20099;-75
2021/06/11 11:57:12;;;;;;;55.55;26.88;;;;;;;;;;5041212;28;20056;-79
2021/06/11 11:59:38;;;;;;;51.10;27.15;;;;;;;;;;5008062;28;20152;-71
2021/06/11 12:02:07;;;;;;;49.08;25.67;;;;;;;;;;5035447;28;20034;-67
2021/06/11 12:04:33;;;;;;;61.85;27.10;;;;;;;;;;5033696;28;20508;-65
2021/06/11 12:07:02;;;;;;;45.75;24.42;;;;;;;;;;5009469;28;20064;-64
2021/06/11 12:09:28;;;;;;;49.42;24.95;;;;;;;;;;5018425;28;20063;-64
2021/06/11 12:11:54;;;;;;;48.95;24.38;;;;;;;;;;5016343;28;20036;-65
2021/06/11 12:14:20;;;;;;;50.83;26.92;;;;;;;;;;5002707;28;20408;-77
2021/06/11 12:16:46;;;;;;;53.00;27.08;;;;;;;;;;5042190;28;20117;-72
2021/06/11 12:19:12;;;;;;;53.63;26.63;;;;;;;;;;5008048;28;20148;-75
2021/06/11 12:21:38;;;;;;;54.47;27.45;;;;;;;;;;5021437;28;20093;-77
2021/06/11 12:24:04;;;;;;;61.47;27.05;;;;;;;;;;5007356;28;20048;-65
2021/06/11 12:26:30;;;;;;;52.33;26.92;;;;;;;;;;5013161;28;20037;-66
2021/06/11 12:28:56;;;;;;;63.95;29.77;;;;;;;;;;5021037;28;20078;-65
2021/06/11 12:31:22;;;;;;;44.53;25.67;;;;;;;;;;5002446;28;20040;-65
2021/06/11 12:33:48;;;;;;;52.00;25.92;;;;;;;;;;5000778;28;20041;-65
2021/06/11 12:36:14;;;;;;;46.55;25.88;;;;;;;;;;5017352;28;20035;-65
2021/06/11 12:38:40;;;;;;;46.42;26.42;;;;;;;;;;5006050;28;20051;-66
2021/06/11 12:41:07;;;;;;;48.78;24.60;;;;;;;;;;5018007;28;20040;-64
2021/06/11 12:46:24;;;;;;;46.92;25.33;;;;;;;;;;4998217;28;20220;-63
2021/06/11 12:48:50;;;;;;;52.17;24.77;;;;;;;;;;5019513;28;20107;-67
2021/06/11 12:51:17;;;;;;;44.80;23.08;;;;;;;;;;5026238;28;20037;-64
2021/06/11 12:53:43;;;;;;;53.67;24.08;;;;;;;;;;4993613;28;20045;-64
2021/06/11 12:56:09;;;;;;;44.35;23.20;;;;;;;;;;5018052;28;20120;-64
2021/06/11 12:58:38;;;;;;;46.97;21.45;;;;;;;;;;5025607;28;20044;-63
2021/06/11 13:01:03;;;;;;;51.05;22.13;;;;;;;;;;5024492;28;20037;-64
2021/06/11 13:03:29;;;;;;;41.30;22.95;;;;;;;;;;5010318;28;20041;-62
2021/06/11 13:05:55;;;;;;;45.40;23.75;;;;;;;;;;5023866;28;20048;-66
2021/06/11 13:08:21;;;;;;;39.92;21.90;;;;;;;;;;4999227;28;20479;-65
2021/06/11 13:10:49;;;;;;;37.83;20.85;;;;;;;;;;5003510;28;20477;-66
2021/06/11 13:13:23;;;;;;;47.28;22.05;;;;;;;;;;5026587;28;20041;-69
2021/06/11 13:15:48;;;;;;;41.90;20.60;;;;;;;;;;5026149;28;20485;-66
2021/06/11 13:18:14;;;;;;;39.05;20.23;;;;;;;;;;5021707;28;20608;-65
2021/06/11 13:20:40;;;;;;;40.20;19.15;;;;;;;;;;5034798;28;20051;-65
2021/06/11 13:23:07;;;;;;;34.78;18.52;;;;;;;;;;5035254;28;20045;-64
2021/06/11 13:25:35;;;;;;;36.58;18.77;;;;;;;;;;5025284;28;20041;-66
2021/06/11 13:28:03;;;;;;;35.58;18.45;;;;;;;;;;5024510;28;20041;-66
2021/06/11 13:30:29;;;;;;;37.10;18.20;;;;;;;;;;5009880;28;20117;-64
2021/06/11 13:32:55;;;;;;;35.33;17.42;;;;;;;;;;5025219;28;20048;-66
2021/06/11 13:35:20;;;;;;;29.50;17.45;;;;;;;;;;5045005;28;20404;-66
2021/06/11 13:37:49;;;;;;;31.15;18.50;;;;;;;;;;5024564;28;20048;-79
2021/06/11 13:40:15;;;;;;;28.30;18.90;;;;;;;;;;5006962;28;20056;-68
2021/06/11 13:42:42;;;;;;;38.17;19.38;;;;;;;;;;5018009;28;20782;-69
2021/06/11 13:45:12;;;;;;;38.85;18.25;;;;;;;;;;5026369;28;20095;-67
2021/06/11 13:47:43;;;;;;;37.65;18.60;;;;;;;;;;5007050;28;20457;-69
2021/06/11 13:50:10;;;;;;;37.22;20.30;;;;;;;;;;5018411;28;20043;-66
2021/06/11 13:52:37;;;;;;;40.85;20.98;;;;;;;;;;5017088;28;20048;-67
2021/06/11 13:55:04;;;;;;;36.67;20.30;;;;;;;;;;5004373;28;20036;-65
2021/06/11 13:57:33;;;;;;;45.17;21.83;;;;;;;;;;5035546;28;20040;-65
2021/06/11 14:00:00;;;;;;;47.75;22.63;;;;;;;;;;5015907;28;20178;-66
2021/06/11 14:02:26;;;;;;;38.83;21.55;;;;;;;;;;5014922;28;20493;-65
2021/06/11 14:04:52;;;;;;;38.67;21.85;;;;;;;;;;5031947;28;20048;-66
2021/06/11 14:07:18;;;;;;;37.95;21.30;;;;;;;;;;5018309;28;20065;-65
2021/06/11 14:09:43;;;;;;;41.15;22.58;;;;;;;;;;5015226;28;20055;-68
2021/06/11 14:12:09;;;;;;;46.90;22.00;;;;;;;;;;5006019;28;20045;-66
2021/06/11 14:14:35;;;;;;;44.53;23.48;;;;;;;;;;5001978;28;20440;-64
2021/06/11 14:17:00;;;;;;;41.90;22.55;;;;;;;;;;5021830;28;20049;-66
2021/06/11 14:19:26;;;;;;;46.95;22.13;;;;;;;;;;5008854;28;20110;-64
2021/06/11 14:21:52;;;;;;;49.65;23.23;;;;;;;;;;5024831;28;20037;-67